Chester, Idaho
Current Conditions -  °F | °C
As of 5:53 PM on Friday 24 Oct 2014 (Local Time) from KRXE Reporting Station
Clear Clear  
Wind Chill: 66°   Ceiling: Unl
Heat Index: 66°   Visibility: 10mi
Dew Point: 27°   Wind: 12mph
Humidity: 23%   Direction: 230°SW
Pressure: 30.09"   Gusts: NA
Location:  44°N, 111.57°W
Report Text: KRXE 242353Z AUTO 23010KT 10SM CLR 19/M03 A3009 RMK AO2 SLP163 T01891028 10200 20150 56006
Loading
Personal Weather Stations






























Interactive Weather Map
Tropical Storm Tracking
New forecast layout! Learn more

10-Day Weather Forecast

Advertisements
Track Severe Weather on mobile